Data for 10/30/2015

Time Sea-Level Adjusted Pressure Absolute Pressure Temperature Relative Humidity Dew Point   
(mb) (inHg) (mb) (inHg) (C) (F) (%) (C) (F)
00:05 1016 30 845 24.95 4.4 39.9 68 -1.1 30
00:10 1016 30 845 24.95 4.4 40 67 -1.2 29.9
00:15 1016 30 845 24.95 4.5 40.1 66 -1.3 29.7
00:20 1016 30 845 24.95 4.6 40.3 66 -1.2 29.8
00:25 1016 30 845 24.95 4.7 40.4 64 -1.5 29.4
00:30 1016 30 845 24.95 4.7 40.5 67 -0.9 30.3
00:35 1016 30 845 24.95 4.6 40.3 66 -1.1 30
00:40 1016 30 845 24.95 4.5 40.2 67 -1 30.2
00:45 1016 30 845 24.95 4.5 40.2 66 -1.2 29.8
00:50 1016 30 845 24.95 4.6 40.2 67 -1.1 30.1
00:55 1016 30 845 24.95 4.5 40.2 67 -1 30.2
01:00 1016 30 845 24.95 4.5 40 68 -0.9 30.4
01:05 1016 30 845 24.95 4.4 39.9 68 -1 30.2
01:10 1016 30 845 24.95 4.3 39.7 68 -1.2 29.9
01:15 1016 30 845 24.95 4.4 39.9 67 -1.2 29.8
01:20 1016 30 845 24.95 4.4 39.9 66 -1.4 29.5
01:25 1016 30 845 24.95 4.4 39.9 67 -1.3 29.7
01:30 1016 30 845 24.95 4.3 39.8 67 -1.4 29.6
01:35 1016 30 845 24.95 4.2 39.6 67 -1.3 29.7
01:40 1016 30 845 24.95 4.2 39.5 67 -1.3 29.7
01:45 1016 30 845 24.95 4.2 39.5 66 -1.6 29.1
01:50 1016 30 845 24.95 4.2 39.5 66 -1.6 29.1
01:55 1016 30 845 24.95 4.1 39.4 66 -1.7 28.9
02:00 1016 30 845 24.95 4.1 39.4 65 -1.8 28.8
02:05 1016 30 845 24.95 4.1 39.5 64 -2 28.4
02:10 1016 30 845 24.95 4.2 39.6 64 -2 28.4
02:15 1016 30 845 24.95 4.4 39.9 62 -2.3 27.9
02:20 1016 30 845 24.95 4.6 40.3 63 -1.9 28.6
02:25 1016 30 845 24.95 4.6 40.2 63 -1.8 28.8
02:30 1016 30 845 24.95 4.5 40.1 63 -1.9 28.6
02:35 1016 30 845 24.95 4.7 40.4 61 -2.1 28.2
02:40 1016 30 845 24.95 4.8 40.7 61 -2.1 28.2
02:45 1016 30 845 24.95 5 40.9 59 -2.4 27.6
02:50 1016 30 845 24.95 5.1 41.3 58 -2.5 27.5
02:55 1016 30 845 24.95 5.2 41.4 58 -2.3 27.8
03:00 1015 29.97 845 24.95 5.2 41.3 57 -2.5 27.4
03:05 1015 29.97 845 24.95 5.2 41.4 57 -2.6 27.4
03:10 1015 29.97 845 24.95 5.2 41.3 57 -2.6 27.4
03:15 1015 29.97 845 24.95 5.2 41.4 57 -2.5 27.5
03:20 1015 29.97 845 24.95 5.2 41.4 58 -2.4 27.6
03:25 1015 29.97 845 24.95 5.3 41.5 57 -2.6 27.4
03:30 1015 29.97 845 24.95 5.3 41.6 57 -2.6 27.3
03:35 1015 29.97 845 24.95 5.4 41.7 55 -2.9 26.7
03:40 1015 29.97 845 24.95 5.4 41.8 57 -2.5 27.6
03:45 1015 29.97 845 24.95 5.3 41.5 59 -2.1 28.3
03:50 1015 29.97 844 24.92 5.1 41.1 60 -2 28.4
03:55 1015 29.97 844 24.92 4.9 40.9 60 -2.1 28.2
04:00 1015 29.97 844 24.92 5 41 60 -2.1 28.2
04:05 1015 29.97 844 24.92 4.9 40.8 59 -2.4 27.7
04:10 1015 29.97 844 24.92 5 41 57 -2.8 27
04:15 1015 29.97 844 24.92 5.2 41.4 56 -2.9 26.7
04:20 1015 29.97 844 24.92 5.3 41.6 55 -2.9 26.7
04:25 1015 29.97 844 24.92 5.4 41.8 54 -3.3 26.1
04:30 1015 29.97 844 24.92 5.6 42 54 -2.9 26.7
04:35 1015 29.97 844 24.92 5.5 42 55 -2.7 27.2
04:40 1015 29.97 844 24.92 5.4 41.8 56 -2.6 27.4
04:45 1015 29.97 844 24.92 5.3 41.6 57 -2.6 27.4
04:50 1015 29.97 844 24.92 5.3 41.5 56 -2.8 27
04:55 1015 29.97 844 24.92 5.3 41.6 55 -2.9 26.8
05:00 1015 29.97 844 24.92 5.3 41.5 55 -3 26.6
05:05 1014 29.94 844 24.92 5.2 41.4 54 -3.3 26
05:10 1015 29.97 844 24.92 5.3 41.5 53 -3.6 25.5
05:15 1015 29.97 844 24.92 5.4 41.7 52 -3.6 25.5
05:20 1014 29.94 844 24.92 5.4 41.6 53 -3.4 25.8
05:25 1014 29.94 844 24.92 5.3 41.6 52 -3.7 25.3
05:30 1014 29.94 844 24.92 5.4 41.8 54 -3.2 26.2
05:35 1014 29.94 844 24.92 5.4 41.7 55 -2.9 26.8
05:40 1014 29.94 844 24.92 5.2 41.4 57 -2.6 27.3
05:45 1014 29.94 844 24.92 5 40.9 58 -2.6 27.3
05:50 1014 29.94 844 24.92 4.8 40.7 59 -2.6 27.4
05:55 1014 29.94 844 24.92 4.7 40.5 59 -2.6 27.4
06:00 1014 29.94 844 24.92 4.6 40.4 59 -2.7 27.2
06:05 1014 29.94 844 24.92 4.7 40.5 58 -2.7 27.1
06:10 1015 29.97 844 24.92 4.8 40.6 59 -2.6 27.4
06:15 1015 29.97 844 24.92 4.7 40.5 58 -2.8 26.9
06:20 1015 29.97 844 24.92 4.7 40.5 57 -3 26.6
06:25 1015 29.97 844 24.92 4.7 40.5 57 -3 26.7
06:30 1015 29.97 844 24.92 4.7 40.5 58 -2.9 26.7
06:35 1015 29.97 844 24.92 4.7 40.4 58 -2.9 26.7
06:40 1015 29.97 844 24.92 4.7 40.4 57 -3 26.5
06:45 1015 29.97 844 24.92 4.7 40.5 57 -3.1 26.5
06:50 1014 29.94 844 24.92 4.8 40.6 57 -3.1 26.4
06:55 1014 29.94 844 24.92 4.7 40.5 58 -2.9 26.8
07:00 1014 29.94 844 24.92 4.7 40.4 58 -2.8 26.9
07:05 1015 29.97 844 24.92 4.7 40.5 58 -2.8 26.9
07:10 1015 29.97 844 24.92 4.8 40.6 53 -4 24.8
07:15 1015 29.97 844 24.92 5.1 41.1 51 -4.2 24.4
07:20 1015 29.97 844 24.92 5.1 41.2 52 -3.8 25.1
07:25 1014 29.94 844 24.92 5 41.1 53 -3.8 25.2
07:30 1014 29.94 844 24.92 5.1 41.2 51 -4.3 24.2
07:35 1014 29.94 844 24.92 5.3 41.6 50 -4.3 24.3
07:40 1014 29.94 843 24.89 5.4 41.7 49 -4.4 24.2
07:45 1014 29.94 844 24.92 5.6 42 48 -4.5 23.8
07:50 1014 29.94 844 24.92 5.7 42.3 48 -4.5 23.8
07:55 1014 29.94 844 24.92 5.7 42.3 48 -4.5 23.9
08:00 1014 29.94 844 24.92 5.7 42.2 50 -4 24.9
08:05 1014 29.94 844 24.92 5.6 42 49 -4.2 24.4
08:10 1014 29.94 844 24.92 5.8 42.4 48 -4.5 23.9
08:15 1014 29.94 843 24.89 5.8 42.5 48 -4.4 24.1
08:20 1014 29.94 843 24.89 5.8 42.4 49 -4.1 24.6
08:25 1014 29.94 843 24.89 5.8 42.4 48 -4.4 24.1
08:30 1014 29.94 843 24.89 6 42.7 47 -4.6 23.8
08:35 1014 29.94 843 24.89 6.2 43.2 46 -4.5 23.9
08:40 1014 29.94 843 24.89 6.5 43.7 44 -4.8 23.3
08:45 1014 29.94 843 24.89 6.7 44 44 -4.7 23.6
08:50 1014 29.94 843 24.89 6.7 44.1 43 -4.8 23.3
08:55 1014 29.94 843 24.89 7.1 44.8 42 -4.8 23.3
09:00 1014 29.94 843 24.89 7.4 45.2 43 -4.5 24
09:05 1013 29.91 843 24.89 7.4 45.4 41 -4.8 23.4
09:10 1014 29.94 843 24.89 7.5 45.4 44 -3.9 25
09:15 1013 29.91 843 24.89 7.5 45.4 45 -3.7 25.3
09:20 1013 29.91 843 24.89 7.5 45.4 45 -3.6 25.6
09:25 1013 29.91 843 24.89 7.7 45.9 44 -3.8 25.2
09:30 1013 29.91 843 24.89 8.3 47 40 -4.5 23.9
09:35 1013 29.91 842 24.86 8.7 47.7 39 -4.6 23.7
09:40 1013 29.91 842 24.86 8.8 47.9 39 -4.3 24.3
09:45 1013 29.91 842 24.86 8.8 47.9 40 -3.9 25
09:50 1013 29.91 842 24.86 9 48.1 40 -4 24.7
09:55 1013 29.91 842 24.86 9.2 48.6 38 -4.4 24
10:00 1013 29.91 842 24.86 9.3 48.7 37 -4.7 23.5
10:05 1013 29.91 842 24.86 9.5 49.1 38 -4.1 24.6
10:10 1013 29.91 843 24.89 9.4 48.8 39 -3.8 25.1
10:15 1013 29.91 842 24.86 9.1 48.3 38 -4.4 24
10:20 1013 29.91 843 24.89 9 48.2 38 -4.5 23.8
10:25 1013 29.91 843 24.89 9 48.1 39 -4.3 24.3
10:30 1013 29.91 842 24.86 8.9 48.1 38 -4.4 24
10:35 1013 29.91 842 24.86 8.9 48 40 -4.1 24.6
10:40 1013 29.91 842 24.86 8.8 47.9 40 -3.9 25.1
10:45 1013 29.91 842 24.86 8.8 47.9 41 -3.7 25.4
10:50 1013 29.91 842 24.86 8.7 47.7 42 -3.5 25.8
10:55 1013 29.91 842 24.86 8.7 47.6 42 -3.5 25.6
11:00 1013 29.91 842 24.86 8.7 47.6 41 -3.8 25.2
11:05 1013 29.91 842 24.86 8.6 47.5 41 -3.8 25.1
11:10 1013 29.91 842 24.86 8.6 47.4 42 -3.7 25.3
11:15 1013 29.91 842 24.86 8.6 47.5 41 -3.8 25.2
11:20 1013 29.91 842 24.86 8.5 47.3 43 -3.4 25.8
11:25 1012 29.88 842 24.86 8.5 47.3 43 -3.4 25.9
11:30 1012 29.88 841 24.83 8.6 47.4 42 -3.6 25.5
11:35 1012 29.88 841 24.83 8.6 47.6 43 -3.3 26.1
11:40 1012 29.88 841 24.83 8.7 47.6 43 -3 26.5
11:45 1012 29.88 841 24.83 8.8 47.8 44 -2.8 27
11:50 1012 29.88 841 24.83 8.8 47.9 44 -2.6 27.3
11:55 1012 29.88 841 24.83 8.8 47.8 45 -2.5 27.5
12:00 1012 29.88 841 24.83 8.8 47.8 45 -2.5 27.6
12:05 1012 29.88 841 24.83 8.7 47.7 46 -2.3 27.8
12:10 1012 29.88 841 24.83 8.8 47.8 45 -2.5 27.4
12:15 1011 29.85 841 24.83 8.8 47.8 43 -3.2 26.2
12:20 1011 29.85 841 24.83 8.8 47.9 42 -3.3 26
12:25 1011 29.85 841 24.83 8.9 48 42 -3.4 26
12:30 1011 29.85 841 24.83 8.8 47.8 43 -3.2 26.2
12:35 1011 29.85 841 24.83 8.7 47.6 43 -3.2 26.2
12:40 1011 29.85 841 24.83 8.7 47.6 44 -3 26.6
12:45 1011 29.85 841 24.83 8.7 47.6 42 -3.5 25.7
12:50 1011 29.85 840 24.81 8.7 47.7 42 -3.3 26
12:55 1011 29.85 840 24.81 8.8 47.8 43 -2.9 26.7
13:00 1011 29.85 840 24.81 8.8 47.8 43 -2.9 26.7
13:05 1011 29.85 840 24.81 8.7 47.6 45 -2.5 27.6
13:10 1011 29.85 840 24.81 8.7 47.6 46 -2.3 27.8
13:15 1011 29.85 840 24.81 8.6 47.5 47 -2 28.4
13:20 1011 29.85 840 24.81 8.6 47.4 46 -2.2 28
13:25 1011 29.85 840 24.81 8.6 47.4 47 -2.1 28.3
13:30 1011 29.85 840 24.81 8.5 47.4 47 -2 28.3
13:35 1010 29.83 840 24.81 8.7 47.6 47 -2 28.5
13:40 1010 29.83 840 24.81 8.8 47.8 47 -1.9 28.6
13:45 1010 29.83 839 24.78 8.8 47.8 48 -1.6 29.2
13:50 1010 29.83 839 24.78 8.7 47.7 47 -1.8 28.8
13:55 1010 29.83 839 24.78 8.8 47.8 47 -1.9 28.6
14:00 1010 29.83 839 24.78 8.8 47.8 47 -2 28.5
14:05 1010 29.83 839 24.78 8.8 47.9 48 -1.7 29
14:10 1010 29.83 839 24.78 8.9 48 46 -2 28.4
14:15 1010 29.83 839 24.78 8.9 48.1 45 -2.3 27.9
14:20 1010 29.83 839 24.78 9 48.2 46 -2 28.4
14:25 1010 29.83 839 24.78 9 48.1 43 -2.8 27
14:30 1010 29.83 839 24.78 9 48.3 45 -2.4 27.8
14:35 1010 29.83 839 24.78 9 48.1 46 -2.1 28.2
14:40 1010 29.83 839 24.78 8.9 48.1 46 -2.1 28.1
14:45 1010 29.83 839 24.78 8.9 48 46 -2.1 28.3
14:50 1010 29.83 839 24.78 8.9 48.1 46 -2.2 28.1
14:55 1010 29.83 839 24.78 8.9 48.1 46 -2 28.4
15:00 1010 29.83 839 24.78 8.9 47.9 46 -2 28.4
15:05 1009 29.8 839 24.78 8.9 48 47 -1.8 28.7
15:10 1009 29.8 839 24.78 8.8 47.9 47 -1.8 28.8
15:15 1009 29.8 838 24.75 8.9 48 46 -2.1 28.2
15:20 1009 29.8 838 24.75 9.1 48.4 46 -1.9 28.6
15:25 1009 29.8 838 24.75 9.2 48.6 46 -1.9 28.7
15:30 1009 29.8 838 24.75 9.3 48.7 46 -1.7 28.9
15:35 1009 29.8 838 24.75 9.3 48.7 44 -2.2 28
15:40 1009 29.8 838 24.75 9.6 49.2 42 -2.7 27.1
15:45 1009 29.8 838 24.75 9.9 49.8 42 -2.5 27.5
15:50 1009 29.8 838 24.75 10 50 41 -2.5 27.6
15:55 1009 29.8 838 24.75 10.1 50.2 41 -2.4 27.6
16:00 1009 29.8 838 24.75 10.3 50.5 41 -2.5 27.5
16:05 1009 29.8 838 24.75 10.3 50.6 40 -2.5 27.5
16:10 1009 29.8 838 24.75 10.4 50.7 40 -2.6 27.3
16:15 1009 29.8 838 24.75 10.5 50.9 39 -2.8 26.9
16:20 1009 29.8 838 24.75 10.7 51.2 39 -2.8 26.9
16:25 1009 29.8 838 24.75 10.7 51.3 38 -2.9 26.7
16:30 1009 29.8 838 24.75 10.7 51.2 39 -2.8 27
16:35 1009 29.8 838 24.75 10.6 51.1 40 -2.4 27.7
16:40 1009 29.8 838 24.75 10.5 50.8 39 -2.7 27.1
16:45 1009 29.8 838 24.75 10.5 51 40 -2.5 27.5
16:50 1009 29.8 838 24.75 10.7 51.3 37 -3.2 26.2
16:55 1009 29.8 838 24.75 10.9 51.7 38 -2.8 27
17:00 1009 29.8 838 24.75 10.9 51.5 38 -2.9 26.8
17:05 1009 29.8 838 24.75 10.9 51.6 38 -2.9 26.7
17:10 1009 29.8 838 24.75 10.7 51.3 39 -2.5 27.5
17:15 1009 29.8 838 24.75 10.8 51.4 38 -3 26.5
17:20 1009 29.8 838 24.75 10.9 51.5 38 -3 26.6
17:25 1009 29.8 838 24.75 11 51.8 37 -3.1 26.4
17:30 1009 29.8 838 24.75 10.9 51.7 39 -2.5 27.5
17:35 1008 29.77 838 24.75 10.7 51.2 39 -2.8 27
17:40 1008 29.77 837 24.72 10.6 51.1 40 -2.6 27.4
17:45 1008 29.77 837 24.72 10.5 51 40 -2.6 27.3
17:50 1008 29.77 838 24.75 10.4 50.6 41 -2.4 27.7
17:55 1008 29.77 838 24.75 10.3 50.5 41 -2.4 27.7
18:00 1009 29.8 838 24.75 10.3 50.5 41 -2.4 27.7
18:05 1009 29.8 838 24.75 10.3 50.6 41 -2.3 27.9
18:10 1009 29.8 838 24.75 10.3 50.5 41 -2.2 28.1
18:15 1009 29.8 838 24.75 10.3 50.5 42 -2.1 28.3
18:20 1009 29.8 838 24.75 10.2 50.4 42 -2 28.4
18:25 1009 29.8 838 24.75 10.2 50.3 43 -1.9 28.6
18:30 1009 29.8 838 24.75 10 50 43 -1.9 28.6
18:35 1009 29.8 838 24.75 9.9 49.9 43 -1.9 28.6
18:40 1009 29.8 838 24.75 9.9 49.8 44 -1.7 28.9
18:45 1009 29.8 838 24.75 10.1 50.2 42 -2.2 28.1
18:50 1009 29.8 838 24.75 10.3 50.5 42 -1.9 28.6
18:55 1009 29.8 838 24.75 10.5 50.8 41 -2.2 28.1
19:00 1009 29.8 838 24.75 10.6 51.1 41 -2 28.5
19:05 1009 29.8 838 24.75 10.6 51.1 42 -1.8 28.8
19:10 1009 29.8 838 24.75 10.6 51 42 -1.8 28.7
19:15 1009 29.8 838 24.75 10.6 51 42 -1.8 28.7
19:20 1009 29.8 838 24.75 10.6 51.1 41 -2 28.4
19:25 1009 29.8 838 24.75 10.8 51.4 41 -1.8 28.8
19:30 1009 29.8 838 24.75 10.8 51.4 41 -1.8 28.8
19:35 1009 29.8 838 24.75 10.7 51.2 42 -1.5 29.2
19:40 1009 29.8 838 24.75 10.6 51 42 -1.8 28.7
19:45 1009 29.8 838 24.75 10.6 51 42 -1.8 28.7
19:50 1009 29.8 838 24.75 10.7 51.2 42 -1.7 28.9
19:55 1009 29.8 838 24.75 10.6 51.1 43 -1.6 29.2
20:00 1009 29.8 838 24.75 10.6 51 42 -1.7 28.9
20:05 1009 29.8 838 24.75 10.6 51.1 43 -1.6 29.2
20:10 1009 29.8 838 24.75 10.5 51 43 -1.6 29.1
20:15 1009 29.8 838 24.75 10.5 50.8 43 -1.6 29.2
20:20 1009 29.8 838 24.75 10.4 50.6 44 -1.4 29.5
20:25 1009 29.8 838 24.75 10.2 50.3 44 -1.6 29.2
20:30 1009 29.8 838 24.75 10.2 50.3 44 -1.5 29.3
20:35 1009 29.8 839 24.78 10.2 50.3 44 -1.6 29.2
20:40 1009 29.8 838 24.75 10.2 50.3 44 -1.4 29.5
20:45 1009 29.8 838 24.75 10.3 50.5 43 -1.6 29.1
20:50 1009 29.8 838 24.75 10.4 50.8 43 -1.6 29.2
20:55 1009 29.8 839 24.78 10.5 51 42 -1.7 29
21:00 1009 29.8 839 24.78 10.5 50.9 42 -1.7 28.9
21:05 1009 29.8 838 24.75 10.5 50.9 42 -1.8 28.8
21:10 1009 29.8 838 24.75 10.6 51.1 41 -1.9 28.6
21:15 1009 29.8 839 24.78 10.6 51.1 42 -1.9 28.7
21:20 1009 29.8 839 24.78 10.5 50.9 42 -1.7 28.9
21:25 1010 29.83 839 24.78 10.4 50.7 42 -1.8 28.7
21:30 1010 29.83 839 24.78 10.3 50.6 43 -1.7 28.9
21:35 1010 29.83 839 24.78 10.3 50.5 43 -1.7 28.9
21:40 1010 29.83 839 24.78 10.3 50.5 42 -2 28.4
21:45 1010 29.83 839 24.78 10.5 50.8 42 -2 28.5
21:50 1010 29.83 839 24.78 10.4 50.7 42 -1.9 28.6
21:55 1010 29.83 839 24.78 10.4 50.7 42 -2 28.3
22:00 1010 29.83 839 24.78 10.4 50.7 42 -1.9 28.6
22:05 1010 29.83 839 24.78 10.3 50.5 43 -1.7 28.9
22:10 1010 29.83 840 24.81 10 50.1 43 -1.8 28.8
22:15 1010 29.83 840 24.81 10.1 50.3 42 -2.2 28
22:20 1010 29.83 840 24.81 10.3 50.5 42 -1.9 28.5
22:25 1010 29.83 840 24.81 10.2 50.3 42 -2.1 28.1
22:30 1010 29.83 840 24.81 10.3 50.5 42 -2.2 28
22:35 1011 29.85 840 24.81 10.3 50.5 42 -2.2 28.1
22:40 1011 29.85 840 24.81 10.3 50.5 41 -2.3 27.9
22:45 1011 29.85 840 24.81 10.3 50.5 42 -2.2 28.1
22:50 1011 29.85 840 24.81 10.2 50.4 41 -2.5 27.5
22:55 1011 29.85 840 24.81 10.3 50.6 41 -2.4 27.7
23:00 1011 29.85 840 24.81 10.3 50.5 41 -2.3 27.9
23:05 1011 29.85 840 24.81 10.2 50.4 41 -2.5 27.5
23:10 1011 29.85 840 24.81 10.3 50.6 40 -2.5 27.5
23:15 1011 29.85 840 24.81 10.2 50.4 40 -2.7 27.2
23:20 1011 29.85 840 24.81 10.4 50.6 40 -2.5 27.4
23:25 1011 29.85 840 24.81 10.2 50.3 41 -2.5 27.5
23:30 1011 29.85 840 24.81 10.1 50.1 41 -2.4 27.6
23:35 1011 29.85 840 24.81 10 50 41 -2.5 27.5
23:40 1011 29.85 840 24.81 10 49.9 41 -2.6 27.3
23:45 1011 29.85 840 24.81 10 49.9 42 -2.4 27.7
23:50 1011 29.85 840 24.81 9.9 49.8 42 -2.5 27.6
23:55 1011 29.85 840 24.81 10 49.9 42 -2.4 27.7
24:00 1011 29.85 840 24.81 10.1 50.2 42 -2.3 27.9